createdAt,value
2022-08-19T12:07:55.638Z,28.27
2022-08-19T12:08:55.019Z,28.55
2022-08-19T12:09:54.968Z,28.78
2022-08-19T12:10:54.887Z,28.48
2022-08-19T12:11:54.834Z,28.64
2022-08-19T12:12:59.035Z,28.80
2022-08-19T12:13:54.707Z,28.93
2022-08-19T12:14:54.641Z,29.15
2022-08-19T12:15:54.629Z,29.15
2022-08-19T12:16:54.532Z,28.93
2022-08-19T12:17:54.615Z,28.77
2022-08-19T12:18:54.406Z,28.68
2022-08-19T12:19:54.339Z,28.58
2022-08-19T12:20:54.286Z,28.48
2022-08-19T12:21:54.211Z,28.36
2022-08-19T12:22:54.169Z,28.25
2022-08-19T12:23:55.946Z,28.22
2022-08-19T12:24:54.029Z,28.21
2022-08-19T12:25:56.259Z,28.24
2022-08-19T12:26:54.159Z,28.21
2022-08-19T12:27:57.685Z,28.15
2022-08-19T12:28:53.794Z,28.12
2022-08-19T12:29:53.732Z,28.15
2022-08-19T12:30:53.655Z,28.17
2022-08-19T12:31:54.814Z,28.11
2022-08-19T12:32:53.541Z,28.06
2022-08-19T12:33:53.467Z,28.07
2022-08-19T12:34:53.423Z,28.04
2022-08-19T12:35:53.346Z,28.00
2022-08-19T12:36:53.293Z,27.92
2022-08-19T12:37:57.090Z,27.85
2022-08-19T12:38:53.168Z,27.81
2022-08-19T12:39:53.162Z,27.77
2022-08-19T12:40:55.970Z,27.77
2022-08-19T12:41:54.712Z,27.70
2022-08-19T12:42:52.935Z,27.66
2022-08-19T12:43:52.881Z,27.62
2022-08-19T12:44:52.802Z,27.63
2022-08-19T12:45:52.734Z,27.67
2022-08-19T12:46:53.894Z,27.74
2022-08-19T12:47:54.785Z,27.78
2022-08-19T12:48:55.307Z,27.74
2022-08-19T12:49:55.480Z,27.77
2022-08-19T12:50:52.427Z,27.75
2022-08-19T12:51:52.376Z,27.70
2022-08-19T12:52:52.303Z,27.67
2022-08-19T12:53:52.239Z,27.63
2022-08-19T12:54:53.812Z,27.55
2022-08-19T12:55:53.352Z,27.51
2022-08-19T12:56:52.065Z,27.49
2022-08-19T12:57:51.999Z,27.49
2022-08-19T12:58:52.970Z,27.49
2022-08-19T12:59:51.883Z,27.49
2022-08-19T13:00:51.849Z,27.47
2022-08-19T13:01:51.773Z,27.46
2022-08-19T13:02:51.683Z,27.47
2022-08-19T13:03:51.647Z,27.50
2022-08-19T13:04:51.563Z,27.51
2022-08-19T13:05:51.504Z,27.51
2022-08-19T13:06:51.449Z,27.54
2022-08-19T13:07:51.390Z,27.54
2022-08-19T13:08:51.310Z,27.54
2022-08-19T13:09:51.295Z,27.47
2022-08-19T13:10:51.205Z,27.44
2022-08-19T13:11:51.136Z,27.43
2022-08-19T13:12:51.066Z,27.41
2022-08-19T13:13:53.561Z,27.41
2022-08-19T13:14:50.959Z,27.41
2022-08-19T13:15:50.890Z,27.40
2022-08-19T13:16:50.817Z,27.39
2022-08-19T13:17:50.804Z,27.39
2022-08-19T13:18:50.712Z,27.36
2022-08-19T13:19:50.638Z,27.37
2022-08-19T13:20:52.783Z,27.40
2022-08-19T13:21:50.557Z,27.37
2022-08-19T13:22:50.467Z,27.39
2022-08-19T13:23:50.410Z,27.39
2022-08-19T13:24:50.348Z,27.40
2022-08-19T13:25:51.048Z,27.41
2022-08-19T13:26:50.208Z,27.43
2022-08-19T13:27:50.197Z,27.40
2022-08-19T13:28:50.085Z,27.44
2022-08-19T13:29:50.024Z,27.44
2022-08-19T13:30:49.965Z,27.47
2022-08-19T13:31:49.918Z,27.54
2022-08-19T13:32:49.841Z,27.59
2022-08-19T13:33:49.786Z,27.62
2022-08-19T13:34:49.705Z,27.65
2022-08-19T13:35:49.683Z,27.67
2022-08-19T13:36:49.583Z,27.69
2022-08-19T13:37:49.547Z,27.70
2022-08-19T13:38:49.533Z,27.70
2022-08-19T13:39:49.457Z,27.70
2022-08-19T13:40:49.347Z,27.70
2022-08-19T13:41:49.291Z,27.70
2022-08-19T13:42:49.221Z,27.70
2022-08-19T13:43:49.177Z,27.69
2022-08-19T13:44:49.095Z,27.70
2022-08-19T13:45:49.048Z,27.74
2022-08-19T13:46:48.961Z,27.77
2022-08-19T13:47:48.917Z,27.72
2022-08-19T13:48:48.837Z,27.67
2022-08-19T13:49:50.129Z,27.66
2022-08-19T13:50:48.763Z,27.63
2022-08-19T13:51:48.797Z,27.59
2022-08-19T13:52:48.832Z,27.57
2022-08-19T13:53:48.539Z,27.54
2022-08-19T13:54:48.484Z,27.55
2022-08-19T13:55:48.433Z,27.57
2022-08-19T13:56:48.360Z,27.59
2022-08-19T13:57:48.467Z,27.50
2022-08-19T13:58:48.234Z,27.47
2022-08-19T13:59:50.518Z,27.43
2022-08-19T14:00:48.698Z,27.40
2022-08-19T14:01:48.047Z,27.41
2022-08-19T14:02:47.972Z,27.47
2022-08-19T14:03:47.920Z,27.51
2022-08-19T14:04:47.888Z,27.55
2022-08-19T14:05:47.814Z,27.60
2022-08-19T14:06:47.748Z,27.65
2022-08-19T14:07:50.014Z,27.69
2022-08-19T14:08:47.611Z,27.69
2022-08-19T14:09:47.534Z,27.69
2022-08-19T14:10:47.475Z,27.70
2022-08-19T14:11:47.436Z,27.74
2022-08-19T14:12:47.370Z,27.74
2022-08-19T14:13:47.331Z,27.72
2022-08-19T14:14:47.243Z,27.66
2022-08-19T14:15:47.178Z,27.62
2022-08-19T14:16:47.127Z,27.62
2022-08-19T14:17:47.059Z,27.62
2022-08-19T14:18:46.992Z,27.60
2022-08-19T14:19:48.207Z,27.59
2022-08-19T14:20:46.876Z,27.57
2022-08-19T14:21:46.796Z,27.54
2022-08-19T14:22:46.745Z,27.51
2022-08-19T14:23:46.671Z,27.51
2022-08-19T14:24:47.762Z,27.50
2022-08-19T14:25:46.567Z,27.50
2022-08-19T14:26:46.504Z,27.50
2022-08-19T14:27:46.434Z,27.50
2022-08-19T14:28:46.374Z,27.50
2022-08-19T14:29:46.301Z,27.51
2022-08-19T14:30:46.237Z,27.51
2022-08-19T14:31:46.204Z,27.50
2022-08-19T14:32:46.134Z,27.49
2022-08-19T14:33:46.073Z,27.50
2022-08-19T14:34:45.997Z,27.50
2022-08-19T14:35:46.034Z,27.50
2022-08-19T14:36:45.877Z,27.50
2022-08-19T14:37:46.322Z,27.50
2022-08-19T14:38:45.757Z,27.54
2022-08-19T14:39:45.758Z,27.55
2022-08-19T14:40:45.617Z,27.60
2022-08-19T14:41:45.572Z,27.62
2022-08-19T14:42:45.515Z,27.62
2022-08-19T14:43:45.455Z,27.66
2022-08-19T14:44:45.384Z,27.69
2022-08-19T14:45:45.309Z,27.67
2022-08-19T14:46:49.261Z,27.70
2022-08-19T14:47:45.350Z,27.70
2022-08-19T14:48:45.129Z,27.72
2022-08-19T14:49:48.574Z,27.75
2022-08-19T14:50:45.031Z,27.77
2022-08-19T14:51:44.943Z,27.78
2022-08-19T14:52:44.904Z,27.79
2022-08-19T14:53:44.809Z,27.84
2022-08-19T14:54:44.770Z,27.82
2022-08-19T14:55:44.705Z,27.82
2022-08-19T14:56:44.639Z,27.82
2022-08-19T14:57:44.636Z,27.81
2022-08-19T14:58:44.529Z,27.79
2022-08-19T14:59:44.458Z,27.77
2022-08-19T15:00:44.393Z,27.75
2022-08-19T15:01:44.367Z,27.75
2022-08-19T15:02:44.258Z,27.72
2022-08-19T15:03:44.204Z,27.69
2022-08-19T15:04:44.136Z,27.65
2022-08-19T15:05:44.088Z,27.67
2022-08-19T15:06:44.023Z,27.65
2022-08-19T15:07:43.970Z,27.63
2022-08-19T15:08:43.895Z,27.62
2022-08-19T15:09:43.841Z,27.63
2022-08-19T15:10:43.774Z,27.63
2022-08-19T15:11:43.701Z,27.62
2022-08-19T15:12:43.658Z,27.62
2022-08-19T15:13:43.591Z,27.59
2022-08-19T15:14:43.513Z,27.55
2022-08-19T15:15:43.457Z,27.51
2022-08-19T15:16:43.408Z,27.50
2022-08-19T15:17:46.369Z,27.46
2022-08-19T15:18:43.280Z,27.44
2022-08-19T15:19:44.445Z,27.43
2022-08-19T15:20:43.168Z,27.40
2022-08-19T15:21:43.088Z,27.36
2022-08-19T15:22:43.027Z,27.31
2022-08-19T15:23:45.614Z,27.29
2022-08-19T15:24:48.151Z,27.28
2022-08-19T15:25:44.000Z,27.25
2022-08-19T15:26:42.784Z,27.18
2022-08-19T15:27:42.724Z,27.14
2022-08-19T15:28:42.646Z,27.10
2022-08-19T15:29:42.600Z,27.07
2022-08-19T15:30:42.543Z,27.06
2022-08-19T15:31:42.469Z,27.04
2022-08-19T15:32:46.161Z,27.06
2022-08-19T15:33:42.352Z,27.06
2022-08-19T15:34:42.294Z,27.04
2022-08-19T15:35:42.218Z,27.07
2022-08-19T15:36:42.164Z,27.09
2022-08-19T15:37:43.315Z,27.09
2022-08-19T15:38:45.937Z,27.06
2022-08-19T15:39:42.013Z,27.04
2022-08-19T15:40:41.917Z,27.00
2022-08-19T15:41:41.870Z,26.94
2022-08-19T15:42:41.802Z,26.94
2022-08-19T15:43:41.758Z,26.94
2022-08-19T15:44:41.674Z,26.89
2022-08-19T15:45:44.275Z,26.88
2022-08-19T15:46:41.539Z,26.85
2022-08-19T15:47:41.481Z,26.82
2022-08-19T15:48:41.423Z,26.82
2022-08-19T15:49:41.393Z,26.81
2022-08-19T15:50:41.284Z,26.82
2022-08-19T15:51:41.228Z,26.84
2022-08-19T15:52:49.497Z,26.81
2022-08-19T15:53:41.102Z,26.80
2022-08-19T15:54:41.057Z,26.76
2022-08-19T15:55:42.506Z,26.75
2022-08-19T15:56:40.921Z,26.73
2022-08-19T15:57:40.853Z,26.72
2022-08-19T15:58:40.810Z,26.70
2022-08-19T15:59:44.435Z,26.70
2022-08-19T16:00:40.680Z,26.69
2022-08-19T16:01:41.123Z,26.65
2022-08-19T16:02:40.558Z,26.63
2022-08-19T16:03:41.365Z,26.60
2022-08-19T16:04:40.415Z,26.57
2022-08-19T16:05:40.353Z,26.57
2022-08-19T16:06:40.287Z,26.57
2022-08-19T16:07:40.259Z,26.55
2022-08-19T16:08:48.755Z,26.54
2022-08-19T16:09:40.105Z,26.52
2022-08-19T16:10:40.058Z,26.51
2022-08-19T16:11:39.979Z,26.50
2022-08-19T16:12:39.928Z,26.47
2022-08-19T16:13:39.885Z,26.47
2022-08-19T16:14:39.809Z,26.45
2022-08-19T16:15:39.737Z,26.44
2022-08-19T16:16:39.669Z,26.43
2022-08-19T16:17:39.615Z,26.44
2022-08-19T16:18:39.558Z,26.43
2022-08-19T16:19:43.158Z,26.40
2022-08-19T16:20:39.423Z,26.37
2022-08-19T16:21:39.377Z,26.37
2022-08-19T16:22:39.303Z,26.36
2022-08-19T16:23:39.227Z,26.35
2022-08-19T16:24:39.184Z,26.33
2022-08-19T16:25:39.125Z,26.33
2022-08-19T16:26:39.065Z,26.33
2022-08-19T16:27:38.983Z,26.32
2022-08-19T16:28:38.922Z,26.33
2022-08-19T16:29:39.159Z,26.30
2022-08-19T16:30:38.801Z,26.29
2022-08-19T16:31:38.793Z,26.29
2022-08-19T16:32:38.692Z,26.29
2022-08-19T16:33:38.620Z,26.28
2022-08-19T16:34:38.559Z,26.29
2022-08-19T16:35:38.507Z,26.29
2022-08-19T16:36:38.438Z,26.28
2022-08-19T16:37:39.566Z,26.26
2022-08-19T16:38:38.301Z,26.23
2022-08-19T16:39:38.318Z,26.25
2022-08-19T16:40:38.185Z,26.20
2022-08-19T16:41:38.125Z,26.20
2022-08-19T16:42:38.049Z,26.20
2022-08-19T16:43:38.796Z,26.17
2022-08-19T16:44:37.939Z,26.12
2022-08-19T16:45:37.885Z,26.10
2022-08-19T16:46:37.795Z,26.10
2022-08-19T16:47:37.744Z,26.07
2022-08-19T16:48:37.675Z,26.02
2022-08-19T16:49:52.965Z,26.02
2022-08-19T16:50:49.287Z,25.99
2022-08-19T16:51:37.498Z,25.99
2022-08-19T16:52:37.426Z,25.98
2022-08-19T16:53:37.381Z,25.95
2022-08-19T16:54:37.319Z,25.97
2022-08-19T16:55:37.266Z,25.97
2022-08-19T16:56:37.196Z,25.95
2022-08-19T16:57:37.128Z,25.94
2022-08-19T16:58:37.047Z,25.92
2022-08-19T16:59:37.008Z,25.91
2022-08-19T17:00:36.946Z,25.90
2022-08-19T17:01:36.912Z,25.87
2022-08-19T17:02:36.806Z,25.85
2022-08-19T17:03:37.020Z,25.83
2022-08-19T17:04:36.678Z,25.80
2022-08-19T17:05:36.630Z,25.79
2022-08-19T17:06:36.558Z,25.76
2022-08-19T17:07:37.282Z,25.76
2022-08-19T17:08:36.449Z,25.73
2022-08-19T17:09:36.379Z,25.73
2022-08-19T17:10:36.304Z,25.72
2022-08-19T17:11:36.252Z,25.70
2022-08-19T17:12:36.179Z,25.67
2022-08-19T17:13:36.143Z,25.65
2022-08-19T17:14:36.069Z,25.64
2022-08-19T17:15:35.995Z,25.64
2022-08-19T17:16:35.946Z,25.62
2022-08-19T17:17:35.882Z,25.61
2022-08-19T17:18:35.825Z,25.60
2022-08-19T17:19:35.774Z,25.55
2022-08-19T17:20:35.679Z,25.55
2022-08-19T17:21:35.627Z,25.52
2022-08-19T17:22:35.553Z,25.52
2022-08-19T17:23:42.540Z,25.50
2022-08-19T17:24:35.454Z,25.50
2022-08-19T17:25:35.373Z,25.46
2022-08-19T17:26:35.318Z,25.46
2022-08-19T17:27:35.262Z,25.43
2022-08-19T17:28:35.197Z,25.43
2022-08-19T17:29:35.129Z,25.42
2022-08-19T17:30:35.071Z,25.42
2022-08-19T17:31:35.026Z,25.42
2022-08-19T17:32:34.941Z,25.40
2022-08-19T17:33:34.868Z,25.39
2022-08-19T17:34:34.812Z,25.38
2022-08-19T17:35:34.747Z,25.38
2022-08-19T17:36:34.697Z,25.35
2022-08-19T17:37:34.967Z,25.32
2022-08-19T17:38:34.566Z,25.32
2022-08-19T17:39:39.467Z,25.27
2022-08-19T17:40:34.451Z,25.27
2022-08-19T17:41:34.367Z,25.25
2022-08-19T17:42:34.307Z,25.24
2022-08-19T17:43:38.948Z,25.21
2022-08-19T17:44:34.192Z,25.23
2022-08-19T17:45:34.117Z,25.20
2022-08-19T17:46:34.082Z,25.18
2022-08-19T17:47:34.011Z,25.18
2022-08-19T17:48:33.943Z,25.14
2022-08-19T17:49:37.876Z,25.14
2022-08-19T17:50:33.810Z,25.10
2022-08-19T17:51:33.763Z,25.08
2022-08-19T17:52:33.696Z,25.08
2022-08-19T17:53:33.632Z,25.09
2022-08-19T17:54:33.960Z,25.08
2022-08-19T17:55:33.513Z,25.08
2022-08-19T17:56:33.447Z,25.05
2022-08-19T17:57:33.383Z,25.03
2022-08-19T17:58:33.319Z,25.02
2022-08-19T17:59:33.263Z,25.00
2022-08-19T18:00:33.202Z,24.99
2022-08-19T18:01:43.922Z,24.96
2022-08-19T18:02:33.065Z,24.96
2022-08-19T18:03:33.009Z,24.95
2022-08-19T18:04:32.934Z,24.93
2022-08-19T18:05:32.872Z,24.93
2022-08-19T18:06:32.831Z,24.93
2022-08-19T18:07:33.534Z,24.91
2022-08-19T18:08:32.702Z,24.91
2022-08-19T18:09:42.003Z,24.90
2022-08-19T18:10:35.294Z,24.90
2022-08-19T18:11:32.502Z,24.88
2022-08-19T18:12:32.454Z,24.88
2022-08-19T18:13:33.589Z,24.85
2022-08-19T18:14:33.981Z,24.85
2022-08-19T18:15:32.263Z,24.85
2022-08-19T18:16:32.188Z,24.84
2022-08-19T18:17:32.123Z,24.84
2022-08-19T18:18:32.078Z,24.83
2022-08-19T18:19:41.414Z,24.83
2022-08-19T18:20:31.938Z,24.81
2022-08-19T18:21:31.891Z,24.81
2022-08-19T18:22:31.822Z,24.76
2022-08-19T18:23:45.532Z,24.73
2022-08-19T18:24:31.703Z,24.73
2022-08-19T18:25:33.187Z,24.69
2022-08-19T18:26:31.577Z,24.69
2022-08-19T18:27:31.495Z,24.69
2022-08-19T18:28:31.452Z,24.67
2022-08-19T18:29:31.387Z,24.65
2022-08-19T18:30:31.308Z,24.62
2022-08-19T18:31:32.032Z,24.62
2022-08-19T18:32:31.184Z,24.61
2022-08-19T18:33:31.129Z,24.60
2022-08-19T18:34:31.073Z,24.58
2022-08-19T18:35:31.003Z,24.58
2022-08-19T18:36:52.587Z,24.55
2022-08-19T18:37:30.996Z,24.53
2022-08-19T18:38:30.809Z,24.53
2022-08-19T18:39:30.765Z,24.52
2022-08-19T18:40:30.685Z,24.49
2022-08-19T18:41:30.634Z,24.49
2022-08-19T18:42:30.577Z,24.46
2022-08-19T18:43:30.545Z,24.45
2022-08-19T18:44:30.449Z,24.43
2022-08-19T18:45:30.379Z,24.42
2022-08-19T18:46:33.026Z,24.37
2022-08-19T18:47:30.250Z,24.37
2022-08-19T18:48:30.209Z,24.35
2022-08-19T18:49:30.137Z,24.34
2022-08-19T18:50:30.057Z,24.34
2022-08-19T18:51:30.012Z,24.31
2022-08-19T18:52:29.932Z,24.28
2022-08-19T18:53:29.885Z,24.27
2022-08-19T18:54:29.812Z,24.27
2022-08-19T18:55:30.965Z,24.24
2022-08-19T18:56:29.699Z,24.22
2022-08-19T18:57:29.645Z,24.21
2022-08-19T18:58:29.569Z,24.18
2022-08-19T18:59:29.499Z,24.13
2022-08-19T19:00:29.454Z,24.13
2022-08-19T19:01:30.314Z,24.12
2022-08-19T19:02:29.376Z,24.10
2022-08-19T19:03:29.311Z,24.06
2022-08-19T19:04:29.255Z,24.03
2022-08-19T19:05:29.175Z,23.98
2022-08-19T19:06:29.114Z,23.97
2022-08-19T19:07:29.077Z,23.95
2022-08-19T19:08:29.009Z,23.93
2022-08-19T19:09:28.921Z,23.90
2022-08-19T19:10:28.858Z,23.87
2022-08-19T19:11:28.813Z,23.85
2022-08-19T19:12:28.750Z,23.83
2022-08-19T19:13:28.684Z,23.80
2022-08-19T19:14:48.054Z,23.78
2022-08-19T19:15:28.556Z,23.79
2022-08-19T19:16:28.491Z,23.76
2022-08-19T19:17:28.479Z,23.75
2022-08-19T19:18:29.045Z,23.73
2022-08-19T19:19:28.321Z,23.72
2022-08-19T19:20:35.006Z,23.69
2022-08-19T19:21:31.849Z,23.66
2022-08-19T19:22:28.079Z,23.66
2022-08-19T19:23:28.046Z,23.63
2022-08-19T19:24:28.001Z,23.63
2022-08-19T19:25:27.929Z,23.61
2022-08-19T19:26:27.882Z,23.60
2022-08-19T19:27:27.812Z,23.58
2022-08-19T19:28:27.761Z,23.55
2022-08-19T19:29:27.672Z,23.54
2022-08-19T19:30:27.604Z,23.53
2022-08-19T19:31:27.577Z,23.51
2022-08-19T19:32:27.483Z,23.53
2022-08-19T19:33:27.430Z,23.50
2022-08-19T19:34:29.365Z,23.48
2022-08-19T19:35:27.295Z,23.46
2022-08-19T19:36:27.230Z,23.42
2022-08-19T19:37:27.187Z,23.40
2022-08-19T19:38:27.113Z,23.36
2022-08-19T19:39:34.024Z,23.36
2022-08-19T19:40:27.084Z,23.35
2022-08-19T19:41:26.912Z,23.33
2022-08-19T19:42:26.852Z,23.33
2022-08-19T19:43:28.376Z,23.31
2022-08-19T19:44:30.630Z,23.31
2022-08-19T19:45:26.662Z,23.28
2022-08-19T19:46:26.613Z,23.27
2022-08-19T19:47:26.536Z,23.27
2022-08-19T19:48:26.498Z,23.23
2022-08-19T19:49:26.484Z,23.22
2022-08-19T19:50:26.349Z,23.22
2022-08-19T19:51:26.303Z,23.19
2022-08-19T19:52:26.241Z,23.19
2022-08-19T19:53:26.211Z,23.17
2022-08-19T19:54:26.096Z,23.17
2022-08-19T19:55:26.877Z,23.19
2022-08-19T19:56:25.972Z,23.16
2022-08-19T19:57:25.913Z,23.16
2022-08-19T19:58:29.004Z,23.16
2022-08-19T19:59:25.786Z,23.16
2022-08-19T20:00:25.679Z,23.13
2022-08-19T20:01:26.495Z,23.13
2022-08-19T20:02:25.601Z,23.09
2022-08-19T20:03:25.547Z,23.09
2022-08-19T20:04:25.468Z,23.05
2022-08-19T20:05:25.423Z,23.04
2022-08-19T20:06:25.355Z,23.02
2022-08-19T20:07:25.313Z,23.02
2022-08-19T20:08:25.233Z,23.00
2022-08-19T20:09:39.123Z,22.97
2022-08-19T20:10:25.130Z,22.97
2022-08-19T20:11:25.048Z,22.95
2022-08-19T20:12:24.983Z,22.95
2022-08-19T20:13:24.935Z,22.94
2022-08-19T20:14:24.858Z,22.95
2022-08-19T20:15:24.795Z,22.95
2022-08-19T20:16:24.684Z,22.94
2022-08-19T20:17:24.659Z,22.95
2022-08-19T20:18:24.617Z,22.94
2022-08-19T20:19:24.565Z,22.92
2022-08-19T20:20:24.467Z,22.92
2022-08-19T20:21:24.413Z,22.92
2022-08-19T20:22:24.352Z,22.92
2022-08-19T20:23:24.291Z,22.92
2022-08-19T20:24:24.218Z,22.92
2022-08-19T20:25:24.943Z,22.94
2022-08-19T20:26:32.098Z,22.94
2022-08-19T20:27:25.697Z,22.94
2022-08-19T20:28:23.977Z,22.92
2022-08-19T20:29:39.094Z,22.91
2022-08-19T20:30:23.843Z,22.91
2022-08-19T20:31:26.038Z,22.91
2022-08-19T20:32:23.714Z,22.90
2022-08-19T20:33:23.664Z,22.86
2022-08-19T20:34:23.587Z,22.88
2022-08-19T20:35:23.542Z,22.86
2022-08-19T20:36:23.471Z,22.86
2022-08-19T20:37:23.408Z,22.88
2022-08-19T20:38:23.342Z,22.86
2022-08-19T20:39:23.276Z,22.85
2022-08-19T20:40:23.205Z,22.86
2022-08-19T20:41:23.157Z,22.85
2022-08-19T20:42:23.087Z,22.86
2022-08-19T20:43:23.036Z,22.85
2022-08-19T20:44:22.957Z,22.83
2022-08-19T20:45:32.223Z,22.85
2022-08-19T20:46:22.840Z,22.83
2022-08-19T20:47:22.768Z,22.83
2022-08-19T20:48:22.709Z,22.83
2022-08-19T20:49:22.665Z,22.82
2022-08-19T20:50:22.545Z,22.83
2022-08-19T20:51:22.510Z,22.82
2022-08-19T20:52:22.453Z,22.82
2022-08-19T20:53:22.385Z,22.80
2022-08-19T20:54:22.352Z,22.79
2022-08-19T20:55:27.014Z,22.79
2022-08-19T20:56:22.199Z,22.77
2022-08-19T20:57:22.135Z,22.79
2022-08-19T20:58:22.082Z,22.79
2022-08-19T20:59:22.024Z,22.77
2022-08-19T21:00:21.950Z,22.77
2022-08-19T21:01:21.922Z,22.73
2022-08-19T21:02:21.832Z,22.73
2022-08-19T21:03:21.772Z,22.73
2022-08-19T21:04:21.710Z,22.72
2022-08-19T21:05:21.630Z,22.72
2022-08-19T21:06:23.075Z,22.70
2022-08-19T21:07:21.492Z,22.70
2022-08-19T21:08:21.407Z,22.70
2022-08-19T21:09:21.392Z,22.70
2022-08-19T21:10:21.314Z,22.68
2022-08-19T21:11:21.265Z,22.68
2022-08-19T21:12:21.206Z,22.68
2022-08-19T21:13:21.161Z,22.65
2022-08-19T21:14:21.082Z,22.65
2022-08-19T21:15:21.033Z,22.64
2022-08-19T21:16:20.935Z,22.64
2022-08-19T21:17:20.890Z,22.64
2022-08-19T21:18:20.850Z,22.65
2022-08-19T21:19:23.938Z,22.64
2022-08-19T21:20:20.705Z,22.61
2022-08-19T21:21:20.648Z,22.60
2022-08-19T21:22:20.560Z,22.60
2022-08-19T21:23:20.533Z,22.58
2022-08-19T21:24:20.482Z,22.57
2022-08-19T21:25:23.106Z,22.52
2022-08-19T21:26:20.325Z,22.49
2022-08-19T21:27:20.249Z,22.45
2022-08-19T21:28:29.967Z,22.43
2022-08-19T21:29:20.131Z,22.43
2022-08-19T21:30:20.061Z,22.40
2022-08-19T21:31:20.004Z,22.39
2022-08-19T21:32:19.954Z,22.37
2022-08-19T21:33:19.877Z,22.36
2022-08-19T21:34:19.817Z,22.35
2022-08-19T21:35:19.738Z,22.33
2022-08-19T21:36:19.679Z,22.33
2022-08-19T21:37:25.036Z,22.31
2022-08-19T21:38:19.557Z,22.33
2022-08-19T21:39:19.505Z,22.30
2022-08-19T21:40:19.522Z,22.33
2022-08-19T21:41:19.324Z,22.31
2022-08-19T21:42:19.312Z,22.30
2022-08-19T21:43:23.825Z,22.27
2022-08-19T21:44:19.171Z,22.25
2022-08-19T21:45:19.126Z,22.27
2022-08-19T21:46:19.054Z,22.24
2022-08-19T21:47:18.999Z,22.25
2022-08-19T21:48:18.938Z,22.22
2022-08-19T21:49:18.885Z,22.21
2022-08-19T21:50:18.806Z,22.21
2022-08-19T21:51:18.746Z,22.21
2022-08-19T21:52:18.672Z,22.21
2022-08-19T21:53:18.618Z,22.20
2022-08-19T21:54:18.541Z,22.18
2022-08-19T21:55:18.467Z,22.17
2022-08-19T21:56:18.418Z,22.14
2022-08-19T21:57:18.355Z,22.14
2022-08-19T21:58:18.305Z,22.14
2022-08-19T21:59:18.265Z,22.12
2022-08-19T22:00:18.166Z,22.07
2022-08-19T22:01:19.705Z,22.07
2022-08-19T22:02:20.796Z,22.06
2022-08-19T22:03:17.973Z,22.05
2022-08-19T22:04:17.908Z,22.03
2022-08-19T22:05:17.848Z,22.00
2022-08-19T22:06:17.796Z,21.99
2022-08-19T22:07:18.513Z,21.98
2022-08-19T22:08:17.659Z,21.94
2022-08-19T22:09:17.609Z,21.92
2022-08-19T22:10:17.540Z,21.88
2022-08-19T22:11:17.469Z,21.86
2022-08-19T22:12:17.430Z,21.86
2022-08-19T22:13:17.392Z,21.83
2022-08-19T22:14:17.296Z,21.83
2022-08-19T22:15:17.228Z,21.82
2022-08-19T22:16:17.173Z,21.82
2022-08-19T22:17:17.087Z,21.80
2022-08-19T22:18:17.029Z,21.82
2022-08-19T22:19:19.245Z,21.80
2022-08-19T22:20:16.932Z,21.79
2022-08-19T22:21:20.227Z,21.77
2022-08-19T22:22:16.781Z,21.77
2022-08-19T22:23:16.728Z,21.77
2022-08-19T22:24:16.656Z,21.74
2022-08-19T22:25:31.430Z,21.72
2022-08-19T22:26:16.544Z,21.72
2022-08-19T22:27:16.457Z,21.71
2022-08-19T22:28:18.636Z,21.69
2022-08-19T22:29:17.252Z,21.68
2022-08-19T22:30:16.282Z,21.67
2022-08-19T22:31:16.219Z,21.64
2022-08-19T22:32:27.079Z,21.62
2022-08-19T22:33:16.093Z,21.62
2022-08-19T22:34:16.018Z,21.61
2022-08-19T22:35:15.954Z,21.58
2022-08-19T22:36:15.883Z,21.53
2022-08-19T22:37:15.830Z,21.50
2022-08-19T22:38:15.778Z,21.46
2022-08-19T22:39:15.709Z,21.43
2022-08-19T22:40:15.659Z,21.40
2022-08-19T22:41:15.586Z,21.40
2022-08-19T22:42:15.524Z,21.40
2022-08-19T22:43:17.436Z,21.37
2022-08-19T22:44:15.393Z,21.34
2022-08-19T22:45:16.051Z,21.35
2022-08-19T22:46:17.569Z,21.34
2022-08-19T22:47:15.190Z,21.32
2022-08-19T22:48:15.128Z,21.29
2022-08-19T22:49:15.082Z,21.25
2022-08-19T22:50:15.004Z,21.24
2022-08-19T22:51:14.967Z,21.19
2022-08-19T22:52:14.885Z,21.17
2022-08-19T22:53:14.820Z,21.14
2022-08-19T22:54:14.763Z,21.13
2022-08-19T22:55:14.696Z,21.10
2022-08-19T22:56:15.611Z,21.07
2022-08-19T22:57:14.568Z,21.07
2022-08-19T22:58:14.510Z,21.06
2022-08-19T22:59:14.435Z,21.01
2022-08-19T23:00:14.380Z,21.01
2022-08-19T23:01:14.633Z,20.97
2022-08-19T23:02:14.261Z,20.94
2022-08-19T23:03:14.189Z,20.91
2022-08-19T23:04:14.158Z,20.91
2022-08-19T23:05:14.046Z,20.88
2022-08-19T23:06:13.990Z,20.87
2022-08-19T23:07:15.526Z,20.82
2022-08-19T23:08:13.865Z,20.79
2022-08-19T23:09:16.685Z,20.77
2022-08-19T23:10:13.752Z,20.76
2022-08-19T23:11:13.689Z,20.76
2022-08-19T23:12:13.610Z,20.76
2022-08-19T23:13:14.332Z,20.77
2022-08-19T23:14:13.486Z,20.77
2022-08-19T23:15:13.419Z,20.74
2022-08-19T23:16:13.386Z,20.73
2022-08-19T23:17:13.292Z,20.72
2022-08-19T23:18:13.237Z,20.72
2022-08-19T23:19:13.178Z,20.72
2022-08-19T23:20:13.100Z,20.70
2022-08-19T23:21:13.036Z,20.69
2022-08-19T23:22:12.994Z,20.69
2022-08-19T23:23:12.912Z,20.66
2022-08-19T23:24:12.860Z,20.64
2022-08-19T23:25:12.773Z,20.64
2022-08-19T23:26:12.740Z,20.66
2022-08-19T23:27:12.664Z,20.62
2022-08-19T23:28:12.605Z,20.61
2022-08-19T23:29:12.532Z,20.59
2022-08-19T23:30:12.476Z,20.58
2022-08-19T23:31:14.755Z,20.57
2022-08-19T23:32:12.352Z,20.55
2022-08-19T23:33:13.028Z,20.54
2022-08-19T23:34:12.212Z,20.52
2022-08-19T23:35:12.149Z,20.54
2022-08-19T23:36:12.055Z,20.55
2022-08-19T23:37:12.826Z,20.54
2022-08-19T23:38:11.969Z,20.52
2022-08-19T23:39:11.901Z,20.54
2022-08-19T23:40:11.883Z,20.54
2022-08-19T23:41:11.781Z,20.54
2022-08-19T23:42:11.696Z,20.52
2022-08-19T23:43:14.728Z,20.51
2022-08-19T23:44:14.917Z,20.54
2022-08-19T23:45:11.529Z,20.52
2022-08-19T23:46:11.489Z,20.54
2022-08-19T23:47:11.397Z,20.54
2022-08-19T23:48:11.349Z,20.54
2022-08-19T23:49:11.288Z,20.54
2022-08-19T23:50:11.188Z,20.54
2022-08-19T23:51:11.148Z,20.52
2022-08-19T23:52:11.077Z,20.52
2022-08-19T23:53:13.386Z,20.50
2022-08-19T23:54:10.976Z,20.50
2022-08-19T23:55:10.896Z,20.48
2022-08-19T23:56:10.817Z,20.47
2022-08-19T23:57:13.231Z,20.48
2022-08-19T23:58:10.700Z,20.50
2022-08-19T23:59:10.625Z,20.48
